Red Mountain, CA (93558)

12:21 PM PDT on August 03, 2015 (GMT -0700)
RAWS | | Change Station
CLOSE
Current Station
Personal Weather Station
Location: Red Mountain, CA
Elevation: 3661 ft
Nearby Weather Stations

Elev 3661 ft 35.37 °N, 117.57 °W | Updated 1 hour ago

Clear
Clear
84.0 °F
Feels Like 84.0 °F
N
4.0
Wind Variable Wind from East
Gusts 13.0 mph

Today
High -- | Low -- °F
--% Chance of Precip.
Yesterday
High -- | Low -- °F
Precip. -- in
6:00 AM 7:52 PM
Waning Gibbous, 84% visible
Pressure 29.82 in
Visibility 10.0 miles
Clouds Few 25000 ft
Dew Point 39.0 °F
Humidity 20%
Rainfall in
Snow Depth Not available.
UV 11 out of 12
Pollen 5.60 out of 12
Air Quality Not available.
Flu Activity Not available.
METAR KNID 031856Z 10005KT 10SM FEW250 35/02 A2989 RMK AO2 SLP096 FU DSNT NW T03500017 $

More Conditions Fewer Conditions

Pressure 29.82 in
Visibility 10.0 miles
Clouds Few 25000 ft
Dew Point 39.0 °F
Humidity 20%
Rainfall in
Snow Depth Not available.
UV 11 out of 12
Pollen 5.60 out of 12
Air Quality Not available.
Flu Activity Not available.
METAR KNID 031856Z 10005KT 10SM FEW250 35/02 A2989 RMK AO2 SLP096 FU DSNT NW T03500017 $

More Conditions Fewer Conditions

10-Day Weather Forecast

×

Almanac

Astronomy

Aug. 03, 2015 Rise Set
Actual Time
Civil Twilight
Nautical Twilight
Astronomical Twilight
Moon
Length of Visible Light
Length of Day
Tomorrow will be .
, % of the Moon is Illuminated

Today's Extremes

State Highs State Lows

Community

WunderPhotos

Upload Photos

1,843,710 photos uploaded!

WunderBlogs® & News

Nearby

Air Quality

  Air Quality AQ Index Pollutant
Not available.

Snow Depth

Station Depth Elevation

Earthquake Activity

City Distance Mag. Time & Date
Minimum magnitude displayed is 2.5.

Coastal Water Temperatures

Place Temperature

Stations

Nearby Weather Stations

Station Location Temp. Windchill Dew Point Humidity Wind Precip. Elev Updated Type